JST8990 YWLM-YBBN
Flight info
| Callsign | JST8990 |
|---|---|
| Flight time | 0h 59m |
| Altitude | 39000 |
| Route | WLM DCT UBSON DCT NICLA DCT BANDA H252 BN |
| Aircraft | A21N/M-SDE2E3FGHIJ1RWXY/LB1 |
Departure
| Time | 2026-05-05 04:47 |
|---|---|
| Airport | Newcastle Airport (YWLM) |
Arrival
| Time | 2026-05-05 05:46 |
|---|---|
| Airport | Brisbane International Airport (YBBN) |
| Time | Latitude | Longitude | Altitude | Speed | Heading |
|---|---|---|---|---|---|
| 2026-05-05 04:35 | -32.80508 | 151.84205 | 32 ft | 0 kts | 225° |
| 2026-05-05 04:42 | -32.80494 | 151.84218 | 32 ft | 4 kts | 233° |
| 2026-05-05 04:42 | -32.80482 | 151.84239 | 32 ft | 4 kts | 220° |
| 2026-05-05 04:42 | -32.80466 | 151.84246 | 32 ft | 4 kts | 143° |
| 2026-05-05 04:43 | -32.80450 | 151.84222 | 32 ft | 4 kts | 122° |
| 2026-05-05 04:43 | -32.80439 | 151.84202 | 32 ft | 0 kts | 130° |
| 2026-05-05 04:45 | -32.80449 | 151.84217 | 32 ft | 4 kts | 130° |
| 2026-05-05 04:45 | -32.80465 | 151.84272 | 32 ft | 11 kts | 80° |
| 2026-05-05 04:46 | -32.80407 | 151.84351 | 32 ft | 15 kts | 40° |
| 2026-05-05 04:46 | -32.80390 | 151.84368 | 32 ft | 0 kts | 39° |
| 2026-05-05 04:46 | -32.80384 | 151.84374 | 32 ft | 7 kts | 39° |
| 2026-05-05 04:46 | -32.80317 | 151.84438 | 31 ft | 14 kts | 32° |
| 2026-05-05 04:47 | -32.80221 | 151.84360 | 31 ft | 29 kts | 311° |
| 2026-05-05 04:47 | -32.79804 | 151.83781 | 41 ft | 153 kts | 310° |
| 2026-05-05 04:47 | -32.79059 | 151.82730 | 1174 ft | 169 kts | 311° |
| 2026-05-05 04:47 | -32.78302 | 151.81639 | 2404 ft | 172 kts | 313° |
| 2026-05-05 04:48 | -32.77459 | 151.80474 | 3386 ft | 206 kts | 312° |
| 2026-05-05 04:48 | -32.76438 | 151.79065 | 4109 ft | 242 kts | 311° |
| 2026-05-05 04:48 | -32.75297 | 151.77478 | 5189 ft | 258 kts | 310° |
| 2026-05-05 04:48 | -32.74129 | 151.75850 | 6558 ft | 260 kts | 310° |
| 2026-05-05 04:49 | -32.72952 | 151.74214 | 7881 ft | 263 kts | 310° |
| 2026-05-05 04:49 | -32.71751 | 151.72543 | 9226 ft | 267 kts | 310° |
| 2026-05-05 04:49 | -32.70441 | 151.70942 | 10424 ft | 280 kts | 321° |
| 2026-05-05 04:49 | -32.68616 | 151.69886 | 11139 ft | 307 kts | 342° |
| 2026-05-05 04:50 | -32.66437 | 151.69636 | 12120 ft | 324 kts | 3° |
| 2026-05-05 04:50 | -32.64249 | 151.70426 | 13311 ft | 337 kts | 24° |
| 2026-05-05 04:50 | -32.62253 | 151.71943 | 14473 ft | 345 kts | 31° |
| 2026-05-05 04:50 | -32.60270 | 151.73600 | 15540 ft | 351 kts | 31° |
| 2026-05-05 04:51 | -32.58251 | 151.75266 | 16583 ft | 357 kts | 30° |
| 2026-05-05 04:51 | -32.56183 | 151.76938 | 17627 ft | 363 kts | 30° |
| 2026-05-05 04:51 | -32.54094 | 151.78586 | 18596 ft | 369 kts | 28° |
| 2026-05-05 04:51 | -32.51921 | 151.80257 | 19464 ft | 375 kts | 27° |
| 2026-05-05 04:52 | -32.49714 | 151.81949 | 20327 ft | 382 kts | 27° |
| 2026-05-05 04:52 | -32.47463 | 151.83673 | 21173 ft | 388 kts | 27° |
| 2026-05-05 04:52 | -32.45178 | 151.85421 | 22015 ft | 395 kts | 26° |
| 2026-05-05 04:52 | -32.42790 | 151.87041 | 22847 ft | 394 kts | 17° |
| 2026-05-05 04:53 | -32.40207 | 151.88098 | 23677 ft | 394 kts | 9° |
| 2026-05-05 04:53 | -32.37578 | 151.89006 | 24412 ft | 397 kts | 8° |
| 2026-05-05 04:53 | -32.34913 | 151.89919 | 25187 ft | 400 kts | 9° |
| 2026-05-05 04:53 | -32.32236 | 151.90852 | 25959 ft | 402 kts | 9° |
| 2026-05-05 04:54 | -32.29545 | 151.91801 | 26708 ft | 404 kts | 9° |
| 2026-05-05 04:54 | -32.26847 | 151.92756 | 27416 ft | 407 kts | 8° |
| 2026-05-05 04:54 | -32.24125 | 151.93720 | 28096 ft | 410 kts | 8° |
| 2026-05-05 04:54 | -32.21383 | 151.94691 | 28772 ft | 413 kts | 8° |
| 2026-05-05 04:55 | -32.18628 | 151.95666 | 29429 ft | 416 kts | 8° |
| 2026-05-05 04:55 | -32.15837 | 151.96655 | 30067 ft | 419 kts | 8° |
| 2026-05-05 04:55 | -32.13039 | 151.97645 | 30574 ft | 423 kts | 8° |
| 2026-05-05 04:55 | -32.10200 | 151.98646 | 31038 ft | 427 kts | 7° |
| 2026-05-05 04:56 | -32.07334 | 151.99658 | 31473 ft | 433 kts | 7° |
| 2026-05-05 04:56 | -32.04456 | 152.00755 | 32003 ft | 440 kts | 10° |
| 2026-05-05 04:56 | -32.01595 | 152.02066 | 32581 ft | 442 kts | 11° |
| 2026-05-05 04:56 | -31.98738 | 152.03403 | 33151 ft | 442 kts | 10° |
| 2026-05-05 04:57 | -31.95875 | 152.04733 | 33727 ft | 443 kts | 9° |
| 2026-05-05 04:57 | -31.93003 | 152.06060 | 34266 ft | 443 kts | 9° |
| 2026-05-05 04:57 | -31.90139 | 152.07382 | 34785 ft | 442 kts | 9° |
| 2026-05-05 04:57 | -31.87279 | 152.08702 | 35280 ft | 441 kts | 8° |
| 2026-05-05 04:58 | -31.84429 | 152.10013 | 35764 ft | 440 kts | 8° |
| 2026-05-05 04:58 | -31.81580 | 152.11310 | 36285 ft | 438 kts | 8° |
| 2026-05-05 04:58 | -31.78750 | 152.12596 | 36788 ft | 436 kts | 7° |
| 2026-05-05 04:58 | -31.75919 | 152.13879 | 37311 ft | 435 kts | 7° |
| 2026-05-05 04:59 | -31.73100 | 152.15163 | 37779 ft | 434 kts | 7° |
| 2026-05-05 04:59 | -31.70288 | 152.16445 | 38215 ft | 434 kts | 7° |
| 2026-05-05 04:59 | -31.67512 | 152.17717 | 38635 ft | 434 kts | 7° |
| 2026-05-05 04:59 | -31.64642 | 152.19029 | 38877 ft | 440 kts | 7° |
| 2026-05-05 05:00 | -31.61811 | 152.20318 | 39094 ft | 445 kts | 7° |
| 2026-05-05 05:00 | -31.58916 | 152.21635 | 39428 ft | 446 kts | 8° |
| 2026-05-05 05:00 | -31.56028 | 152.22951 | 39833 ft | 446 kts | 8° |
| 2026-05-05 05:00 | -31.53135 | 152.24281 | 40285 ft | 446 kts | 8° |
| 2026-05-05 05:01 | -31.50239 | 152.25600 | 40752 ft | 446 kts | 8° |
| 2026-05-05 05:01 | -31.47349 | 152.26917 | 41226 ft | 446 kts | 8° |
| 2026-05-05 05:01 | -31.44457 | 152.28232 | 41725 ft | 446 kts | 8° |
| 2026-05-05 05:01 | -31.41576 | 152.29541 | 42168 ft | 439 kts | 9° |
| 2026-05-05 05:02 | -31.38783 | 152.30821 | 42234 ft | 424 kts | 8° |
| 2026-05-05 05:02 | -31.36081 | 152.32058 | 42184 ft | 411 kts | 8° |
| 2026-05-05 05:02 | -31.33447 | 152.33253 | 42113 ft | 400 kts | 7° |
| 2026-05-05 05:03 | -31.28351 | 152.35550 | 41978 ft | 394 kts | 7° |
| 2026-05-05 05:03 | -31.23263 | 152.37846 | 41989 ft | 387 kts | 7° |
| 2026-05-05 05:04 | -31.18236 | 152.40117 | 42007 ft | 381 kts | 6° |
| 2026-05-05 05:04 | -31.15809 | 152.41223 | 41805 ft | 372 kts | 6° |
| 2026-05-05 05:04 | -31.13363 | 152.42314 | 41202 ft | 383 kts | 5° |
| 2026-05-05 05:04 | -31.10723 | 152.43416 | 39959 ft | 419 kts | 5° |
| 2026-05-05 05:05 | -31.07905 | 152.44545 | 39071 ft | 429 kts | 5° |
| 2026-05-05 05:05 | -31.02269 | 152.46815 | 39152 ft | 432 kts | 5° |
| 2026-05-05 05:06 | -30.96581 | 152.49090 | 39111 ft | 432 kts | 5° |
| 2026-05-05 05:06 | -30.90924 | 152.51337 | 39109 ft | 432 kts | 5° |
| 2026-05-05 05:07 | -30.85237 | 152.53587 | 39111 ft | 432 kts | 5° |
| 2026-05-05 05:07 | -30.79545 | 152.55835 | 39111 ft | 431 kts | 5° |
| 2026-05-05 05:08 | -30.73853 | 152.58071 | 39110 ft | 433 kts | 5° |
| 2026-05-05 05:08 | -30.68154 | 152.60303 | 39102 ft | 432 kts | 5° |
| 2026-05-05 05:09 | -30.62459 | 152.62541 | 39106 ft | 433 kts | 5° |
| 2026-05-05 05:09 | -30.56746 | 152.64765 | 39110 ft | 432 kts | 5° |
| 2026-05-05 05:10 | -30.51054 | 152.66975 | 39109 ft | 431 kts | 5° |
| 2026-05-05 05:10 | -30.45357 | 152.69180 | 39111 ft | 432 kts | 5° |
| 2026-05-05 05:11 | -30.39667 | 152.71452 | 39112 ft | 436 kts | 8° |
| 2026-05-05 05:11 | -30.34002 | 152.73900 | 39108 ft | 431 kts | 5° |
| 2026-05-05 05:12 | -30.28418 | 152.75994 | 39102 ft | 428 kts | 4° |
| 2026-05-05 05:12 | -30.22714 | 152.78029 | 39096 ft | 429 kts | 4° |
| 2026-05-05 05:13 | -30.17004 | 152.80067 | 39089 ft | 429 kts | 4° |
| 2026-05-05 05:13 | -30.11288 | 152.82114 | 39088 ft | 430 kts | 4° |
| 2026-05-05 05:14 | -30.05577 | 152.84159 | 39089 ft | 430 kts | 4° |
| 2026-05-05 05:14 | -29.99866 | 152.86204 | 39085 ft | 429 kts | 4° |
| 2026-05-05 05:15 | -29.94158 | 152.88235 | 39083 ft | 430 kts | 4° |
| 2026-05-05 05:15 | -29.88437 | 152.90274 | 39079 ft | 431 kts | 4° |
| 2026-05-05 05:16 | -29.83686 | 152.91965 | 39074 ft | 430 kts | 4° |
| 2026-05-05 05:16 | -29.77976 | 152.94001 | 39068 ft | 430 kts | 4° |
| 2026-05-05 05:17 | -29.72254 | 152.96044 | 39063 ft | 430 kts | 4° |
| 2026-05-05 05:17 | -29.66535 | 152.98091 | 39063 ft | 430 kts | 4° |
| 2026-05-05 05:18 | -29.61228 | 152.99978 | 39058 ft | 430 kts | 4° |
| 2026-05-05 05:18 | -29.55519 | 153.01989 | 39060 ft | 429 kts | 4° |
| 2026-05-05 05:19 | -29.49808 | 153.04004 | 39054 ft | 429 kts | 4° |
| 2026-05-05 05:19 | -29.44103 | 153.06039 | 39056 ft | 429 kts | 4° |
| 2026-05-05 05:20 | -29.38437 | 153.08046 | 39047 ft | 429 kts | 4° |
| 2026-05-05 05:20 | -29.32742 | 153.10060 | 39053 ft | 428 kts | 4° |
| 2026-05-05 05:20 | -29.29910 | 153.11054 | 38950 ft | 424 kts | 4° |
| 2026-05-05 05:21 | -29.27089 | 153.12038 | 38517 ft | 423 kts | 4° |
| 2026-05-05 05:21 | -29.24270 | 153.13021 | 37926 ft | 425 kts | 4° |
| 2026-05-05 05:21 | -29.21435 | 153.14016 | 37278 ft | 427 kts | 4° |
| 2026-05-05 05:21 | -29.18588 | 153.15016 | 36603 ft | 430 kts | 4° |
| 2026-05-05 05:22 | -29.15724 | 153.16022 | 35918 ft | 432 kts | 4° |
| 2026-05-05 05:22 | -29.12852 | 153.17027 | 35298 ft | 433 kts | 5° |
| 2026-05-05 05:22 | -29.09973 | 153.18047 | 34687 ft | 433 kts | 5° |
| 2026-05-05 05:22 | -29.07095 | 153.19065 | 34100 ft | 432 kts | 5° |
| 2026-05-05 05:23 | -29.04226 | 153.20073 | 33442 ft | 431 kts | 5° |
| 2026-05-05 05:23 | -29.01365 | 153.21073 | 32826 ft | 429 kts | 5° |
| 2026-05-05 05:23 | -28.98540 | 153.22058 | 32220 ft | 427 kts | 6° |
| 2026-05-05 05:23 | -28.95698 | 153.23046 | 31600 ft | 425 kts | 6° |
| 2026-05-05 05:24 | -28.92884 | 153.24030 | 30975 ft | 421 kts | 6° |
| 2026-05-05 05:24 | -28.90099 | 153.25010 | 30362 ft | 417 kts | 7° |
| 2026-05-05 05:24 | -28.87335 | 153.25980 | 29700 ft | 413 kts | 7° |
| 2026-05-05 05:24 | -28.84608 | 153.26935 | 29035 ft | 408 kts | 7° |
| 2026-05-05 05:25 | -28.81913 | 153.27873 | 28425 ft | 402 kts | 7° |
| 2026-05-05 05:25 | -28.79262 | 153.28797 | 27869 ft | 396 kts | 7° |
| 2026-05-05 05:25 | -28.76649 | 153.29708 | 27333 ft | 390 kts | 7° |
| 2026-05-05 05:25 | -28.74066 | 153.30607 | 26773 ft | 385 kts | 8° |
| 2026-05-05 05:26 | -28.71520 | 153.31492 | 26239 ft | 381 kts | 8° |
| 2026-05-05 05:26 | -28.68996 | 153.32369 | 25713 ft | 377 kts | 8° |
| 2026-05-05 05:26 | -28.66505 | 153.33241 | 25206 ft | 373 kts | 8° |
| 2026-05-05 05:26 | -28.64039 | 153.34099 | 24690 ft | 370 kts | 9° |
| 2026-05-05 05:27 | -28.61584 | 153.34947 | 24167 ft | 367 kts | 9° |
| 2026-05-05 05:27 | -28.59149 | 153.35791 | 23645 ft | 365 kts | 9° |
| 2026-05-05 05:27 | -28.56729 | 153.36631 | 23059 ft | 362 kts | 9° |
| 2026-05-05 05:28 | -28.54620 | 153.37366 | 22589 ft | 359 kts | 10° |
| 2026-05-05 05:28 | -28.52254 | 153.38186 | 22043 ft | 355 kts | 10° |
| 2026-05-05 05:28 | -28.49900 | 153.39002 | 21513 ft | 352 kts | 11° |
| 2026-05-05 05:28 | -28.47569 | 153.39811 | 21012 ft | 348 kts | 11° |
| 2026-05-05 05:29 | -28.45258 | 153.40613 | 20527 ft | 346 kts | 11° |
| 2026-05-05 05:29 | -28.42956 | 153.41413 | 20069 ft | 346 kts | 11° |
| 2026-05-05 05:29 | -28.40658 | 153.42208 | 19599 ft | 345 kts | 11° |
| 2026-05-05 05:29 | -28.38360 | 153.43001 | 19146 ft | 345 kts | 12° |
| 2026-05-05 05:30 | -28.36060 | 153.43796 | 18701 ft | 346 kts | 12° |
| 2026-05-05 05:30 | -28.33754 | 153.44595 | 18240 ft | 347 kts | 12° |
| 2026-05-05 05:30 | -28.31439 | 153.45390 | 17742 ft | 348 kts | 12° |
| 2026-05-05 05:30 | -28.29130 | 153.46186 | 17278 ft | 347 kts | 13° |
| 2026-05-05 05:31 | -28.26820 | 153.46979 | 16833 ft | 345 kts | 13° |
| 2026-05-05 05:31 | -28.24542 | 153.47765 | 16396 ft | 338 kts | 13° |
| 2026-05-05 05:31 | -28.22320 | 153.48534 | 15993 ft | 332 kts | 13° |
| 2026-05-05 05:31 | -28.20124 | 153.49292 | 15586 ft | 326 kts | 14° |
| 2026-05-05 05:32 | -28.17971 | 153.49974 | 15211 ft | 318 kts | 8° |
| 2026-05-05 05:32 | -28.15798 | 153.49956 | 14817 ft | 311 kts | 345° |
| 2026-05-05 05:32 | -28.13752 | 153.49198 | 14460 ft | 310 kts | 337° |
| 2026-05-05 05:32 | -28.11736 | 153.48300 | 14071 ft | 311 kts | 337° |
| 2026-05-05 05:33 | -28.09716 | 153.47411 | 13664 ft | 313 kts | 338° |
| 2026-05-05 05:33 | -28.07678 | 153.46555 | 13259 ft | 313 kts | 339° |
| 2026-05-05 05:33 | -28.05635 | 153.45706 | 12887 ft | 312 kts | 339° |
| 2026-05-05 05:33 | -28.03597 | 153.44860 | 12510 ft | 312 kts | 339° |
| 2026-05-05 05:34 | -28.01559 | 153.44011 | 12117 ft | 312 kts | 339° |
| 2026-05-05 05:34 | -27.99540 | 153.43170 | 11723 ft | 313 kts | 339° |
| 2026-05-05 05:34 | -27.97492 | 153.42316 | 11339 ft | 314 kts | 339° |
| 2026-05-05 05:34 | -27.95443 | 153.41457 | 10964 ft | 315 kts | 339° |
| 2026-05-05 05:35 | -27.93385 | 153.40601 | 10583 ft | 315 kts | 339° |
| 2026-05-05 05:35 | -27.91343 | 153.39748 | 10286 ft | 309 kts | 339° |
| 2026-05-05 05:35 | -27.89353 | 153.38924 | 10043 ft | 300 kts | 339° |
| 2026-05-05 05:35 | -27.87384 | 153.38108 | 9656 ft | 296 kts | 339° |
| 2026-05-05 05:36 | -27.85484 | 153.37308 | 9230 ft | 294 kts | 339° |
| 2026-05-05 05:36 | -27.83557 | 153.36507 | 8820 ft | 297 kts | 339° |
| 2026-05-05 05:36 | -27.81624 | 153.35698 | 8432 ft | 295 kts | 339° |
| 2026-05-05 05:36 | -27.79710 | 153.34886 | 8046 ft | 292 kts | 339° |
| 2026-05-05 05:37 | -27.77820 | 153.34092 | 7688 ft | 289 kts | 339° |
| 2026-05-05 05:37 | -27.75964 | 153.33201 | 7334 ft | 290 kts | 330° |
| 2026-05-05 05:37 | -27.74306 | 153.31920 | 6982 ft | 288 kts | 323° |
| 2026-05-05 05:37 | -27.72703 | 153.30587 | 6610 ft | 285 kts | 323° |
| 2026-05-05 05:38 | -27.71114 | 153.29263 | 6247 ft | 281 kts | 323° |
| 2026-05-05 05:38 | -27.69575 | 153.27991 | 5964 ft | 269 kts | 323° |
| 2026-05-05 05:38 | -27.68095 | 153.26784 | 5697 ft | 256 kts | 323° |
| 2026-05-05 05:38 | -27.67203 | 153.26062 | 5540 ft | 251 kts | 323° |
| 2026-05-05 05:39 | -27.65966 | 153.25043 | 5322 ft | 247 kts | 323° |
| 2026-05-05 05:39 | -27.64577 | 153.23890 | 5038 ft | 249 kts | 323° |
| 2026-05-05 05:39 | -27.63202 | 153.22749 | 4741 ft | 241 kts | 322° |
| 2026-05-05 05:39 | -27.61870 | 153.21641 | 4359 ft | 234 kts | 322° |
| 2026-05-05 05:40 | -27.60570 | 153.20589 | 4175 ft | 225 kts | 323° |
| 2026-05-05 05:40 | -27.59320 | 153.19601 | 4034 ft | 214 kts | 323° |
| 2026-05-05 05:40 | -27.58142 | 153.18669 | 3916 ft | 199 kts | 323° |
| 2026-05-05 05:40 | -27.57047 | 153.17800 | 3772 ft | 187 kts | 323° |
| 2026-05-05 05:41 | -27.56038 | 153.16916 | 3548 ft | 182 kts | 321° |
| 2026-05-05 05:41 | -27.55043 | 153.16046 | 3336 ft | 181 kts | 321° |
| 2026-05-05 05:41 | -27.54049 | 153.15180 | 3124 ft | 180 kts | 321° |
| 2026-05-05 05:41 | -27.53060 | 153.14320 | 2887 ft | 179 kts | 321° |
| 2026-05-05 05:42 | -27.52066 | 153.13457 | 2528 ft | 182 kts | 322° |
| 2026-05-05 05:42 | -27.51089 | 153.12605 | 2356 ft | 174 kts | 321° |
| 2026-05-05 05:42 | -27.50462 | 153.12059 | 2233 ft | 170 kts | 322° |
| 2026-05-05 05:42 | -27.50270 | 153.11893 | 2193 ft | 167 kts | 322° |
| 2026-05-05 05:43 | -27.49389 | 153.11133 | 2041 ft | 150 kts | 322° |
| 2026-05-05 05:43 | -27.48498 | 153.10384 | 1940 ft | 149 kts | 326° |
| 2026-05-05 05:43 | -27.47668 | 153.09939 | 1722 ft | 127 kts | 338° |
| 2026-05-05 05:43 | -27.46819 | 153.09652 | 1557 ft | 126 kts | 348° |
| 2026-05-05 05:44 | -27.45953 | 153.09519 | 1413 ft | 126 kts | 356° |
| 2026-05-05 05:44 | -27.45094 | 153.09533 | 1240 ft | 125 kts | 6° |
| 2026-05-05 05:44 | -27.44302 | 153.09692 | 1082 ft | 124 kts | 14° |
| 2026-05-05 05:44 | -27.43497 | 153.10013 | 913 ft | 122 kts | 25° |
| 2026-05-05 05:45 | -27.42743 | 153.10436 | 757 ft | 120 kts | 28° |
| 2026-05-05 05:45 | -27.41995 | 153.10851 | 540 ft | 120 kts | 26° |
| 2026-05-05 05:45 | -27.41259 | 153.11259 | 356 ft | 117 kts | 28° |
| 2026-05-05 05:45 | -27.40533 | 153.11681 | 143 ft | 118 kts | 27° |
| 2026-05-05 05:46 | -27.39831 | 153.12074 | 28 ft | 110 kts | 27° |
| 2026-05-05 05:46 | -27.39313 | 153.12371 | 25 ft | 56 kts | 27° |
| 2026-05-05 05:46 | -27.39031 | 153.12531 | 25 ft | 41 kts | 24° |
| 2026-05-05 05:46 | -27.38794 | 153.12652 | 28 ft | 32 kts | 24° |
| 2026-05-05 05:47 | -27.38695 | 153.12659 | 28 ft | 16 kts | 357° |
| 2026-05-05 05:47 | -27.38562 | 153.12653 | 27 ft | 21 kts | 358° |
| 2026-05-05 05:47 | -27.38412 | 153.12632 | 25 ft | 23 kts | 333° |
| 2026-05-05 05:47 | -27.38451 | 153.12498 | 23 ft | 26 kts | 205° |
| 2026-05-05 05:48 | -27.38617 | 153.12401 | 23 ft | 28 kts | 205° |
| 2026-05-05 05:48 | -27.38800 | 153.12301 | 23 ft | 30 kts | 206° |
| 2026-05-05 05:48 | -27.38995 | 153.12189 | 23 ft | 33 kts | 207° |
| 2026-05-05 05:48 | -27.39204 | 153.12070 | 24 ft | 35 kts | 207° |
| 2026-05-05 05:49 | -27.39424 | 153.11946 | 24 ft | 36 kts | 206° |
| 2026-05-05 05:49 | -27.39656 | 153.11816 | 24 ft | 38 kts | 206° |
| 2026-05-05 05:49 | -27.39835 | 153.11717 | 23 ft | 19 kts | 210° |
| 2026-05-05 05:49 | -27.39876 | 153.11579 | 23 ft | 22 kts | 223° |
| 2026-05-05 05:50 | -27.40020 | 153.11495 | 23 ft | 25 kts | 206° |
| 2026-05-05 05:50 | -27.40167 | 153.11394 | 25 ft | 22 kts | 243° |
| 2026-05-05 05:50 | -27.40222 | 153.11310 | 23 ft | 0 kts | 213° |
| 2026-05-05 05:50 | -27.40234 | 153.11301 | 24 ft | 0 kts | 213° |
| 2026-05-05 05:52 | -27.40249 | 153.11286 | 23 ft | 6 kts | 238° |
| 2026-05-05 05:52 | -27.40242 | 153.11229 | 25 ft | 10 kts | 302° |
| 2026-05-05 05:52 | -27.40236 | 153.11211 | 23 ft | 2 kts | 293° |
| 2026-05-05 05:52 | -27.40232 | 153.11208 | 23 ft | 0 kts | 318° |
| 2026-05-05 05:53 | -27.40223 | 153.11191 | 23 ft | 2 kts | 299° |
| 2026-05-05 05:53 | -27.40222 | 153.11189 | 25 ft | 0 kts | 295° |
| 2026-05-05 06:01 | -27.40227 | 153.11199 | 23 ft | 0 kts | 297° |